This is the latest recevied weather packets stored in our database for station/object K8FJG-13. If no packets are shown the sender has not sent any weather packets the latest 10 day(s).
| Time | Temp. | Humidity | Pressure | Rain* | Wind** | Luminosity | Snow |
|---|---|---|---|---|---|---|---|
| 1777430346 | 10.56° C | 90% | 969.3 hPa | - | - | - | - |
| 1777426727 | 11.67° C | 85% | 969.3 hPa | - | - | - | - |
| 1777426124 | 12.22° C | 85% | 969.6 hPa | - | - | - | - |
| 1777425521 | 12.22° C | 84% | 969.4 hPa | - | - | - | - |
| 1777423108 | 13.33° C | 82% | 969 hPa | - | - | - | - |
| 1777421299 | 14.44° C | 79% | 968.7 hPa | - | - | - | - |
| 1777418886 | 15.56° C | 75% | 969.1 hPa | - | - | - | - |
| 1777412855 | 18.89° C | 66% | 967.9 hPa | - | - | - | - |
| 1777408633 | 20° C | 65% | 967.5 hPa | - | - | - | - |
| 1777408030 | 20.56° C | 63% | 967.5 hPa | - | - | - | - |
| 1777407427 | 20.56° C | 63% | 967.4 hPa | - | - | - | - |
| 1777405014 | 20° C | 67% | 967.7 hPa | - | - | - | - |
| 1777404411 | 20° C | 67% | 967.6 hPa | - | - | - | - |
| 1777403808 | 20.56° C | 66% | 967.6 hPa | - | - | - | - |
| 1777401395 | 21.11° C | 65% | 967.4 hPa | - | - | - | - |
| 1777397776 | 20.56° C | 68% | 967.4 hPa | - | - | - | - |
| 1777397173 | 20.56° C | 68% | 967.4 hPa | - | - | - | - |
| 1777396570 | 20° C | 71% | 967.4 hPa | - | - | - | - |
| 1777395967 | 20° C | 72% | 967.3 hPa | - | - | - | - |
| 1777395364 | 18.89° C | 73% | 967.4 hPa | - | - | - | - |
| 1777394157 | 17.78° C | 76% | 967.5 hPa | - | - | - | - |
| 1777393554 | 17.78° C | 77% | 967.6 hPa | - | - | - | - |
| 1777392951 | 17.22° C | 78% | 967.4 hPa | - | - | - | - |
| 1777392348 | 17.78° C | 77% | 967.4 hPa | - | - | - | - |
| 1777390538 | 15.56° C | 82% | 967.4 hPa | - | - | - | - |
* Rain since midnight (hover to see other rain measurements)
** Current wind speed in m/s (hover to see current wind gust speed)